• Join FlightAware (Why Join?)
  • Login
  • US Flag 
03:34AM EST


 

Airport Tracker/Info


-or-


 

Live Flight TrackerFlight Track Log ✈ N6036Y ✈ 03-Mar-2014 ✈ KVDF - KEVB

Flight Track Log - Related Links

Times and Time Zones

All times are in EST time to prevent confusion due to time zone crossing. See the N6036Y flight status page for this flight to view local times or setup timezone preferences in your user account.

Time Position Orientation Groundspeed Altitude Reporting Facility
EST Latitude Longitude Course Direction KTS MPH feet Rate Location/Type
08:41PM 28.0500 -82.3833 41° Northeast 121 139 5,500  Level Tampa TRACON
08:42PM 28.0833 -82.3500 41° Northeast 118 136 5,500  Level Tampa TRACON
08:43PM 28.1000 -82.3333 41° Northeast 115 132 5,500  Level Tampa TRACON
08:44PM 28.1167 -82.3000 60° Northeast 117 135 5,500  Level Tampa TRACON
08:45PM 28.1500 -82.2833 24° Northeast 121 139 5,500  Level Tampa TRACON
08:46PM 28.1667 -82.2500 60° Northeast 121 139 5,500  Level Tampa TRACON
08:47PM 28.1833 -82.2167 60° Northeast 120 138 5,500  Level Tampa TRACON
08:48PM 28.2000 -82.1833 60° Northeast 120 138 5,500  Level Tampa TRACON
08:51PM 28.2500 -82.1167 50° Northeast 121 139 5,500  Level Orlando TRACON
08:52PM 28.2667 -82.0833 60° Northeast 122 140 5,500  Level Orlando TRACON
08:53PM 28.3000 -82.0500 41° Northeast 122 140 5,500  Level Orlando TRACON
08:54PM 28.3167 -82.0333 41° Northeast 121 139 5,500  Level Orlando TRACON
08:54PM 28.3333 -82.0000 60° Northeast 120 138 5,500  Level Orlando TRACON
08:55PM 28.3500 -81.9667 60° Northeast 120 138 5,500  Level Orlando TRACON
08:56PM 28.3833 -81.9500 24° Northeast 121 139 5,500  Level Orlando TRACON
08:57PM 28.4000 -81.9167 60° Northeast 123 142 5,500  Level Orlando TRACON
08:58PM 28.4167 -81.8833 60° Northeast 122 140 5,500  Level Orlando TRACON
08:59PM 28.4500 -81.8500 41° Northeast 121 139 5,500  Level Orlando TRACON
09:00PM 28.4667 -81.8167 60° Northeast 121 139 5,500  Level Orlando TRACON
09:01PM 28.4833 -81.8000 41° Northeast 123 142 5,500  Level Orlando TRACON
09:02PM 28.5000 -81.7667 60° Northeast 124 143 5,500  Level Orlando TRACON
09:03PM 28.5333 -81.7333 41° Northeast 122 140 5,500  Level Orlando TRACON
09:04PM 28.5500 -81.7000 60° Northeast 123 142 5,500  Level Orlando TRACON
09:05PM 28.5667 -81.6667 60° Northeast 122 140 5,500  Level Orlando TRACON
09:06PM 28.5833 -81.6333 60° Northeast 124 143 5,500  Level Orlando TRACON
09:07PM 28.6000 -81.6167 41° Northeast 124 143 5,500  Level Orlando TRACON
09:08PM 28.6333 -81.5833 41° Northeast 124 143 5,500  Level Orlando TRACON
09:09PM 28.6500 -81.5500 60° Northeast 125 144 5,500  Level Orlando TRACON
09:10PM 28.6667 -81.5167 60° Northeast 126 145 5,500  Level Orlando TRACON
09:11PM 28.6833 -81.4833 60° Northeast 123 142 5,500  Level Orlando TRACON
09:12PM 28.7167 -81.4500 41° Northeast 125 144 5,500  Level Orlando TRACON
09:13PM 28.7333 -81.4167 60° Northeast 125 144 5,500 -240 Level Orlando TRACON
09:14PM 28.7500 -81.3833 60° Northeast 126 145 5,100 -480 Descending Orlando TRACON
09:16PM 28.7833 -81.3500 41° Northeast 120 138 4,500 -540 Descending Orlando TRACON
09:18PM 28.8247 -81.3025 45° Northeast 118 136 3,600 -300 Descending Jacksonville Center
09:19PM 28.8450 -81.2736 51° Northeast 121 139 3,600  Level Jacksonville Center
09:20PM 28.8633 -81.2378 60° Northeast 125 144 3,600  Level Jacksonville Center
09:21PM 28.8797 -81.2044 61° Northeast 126 145 3,600  Level Jacksonville Center
09:22PM 28.9003 -81.1731 53° Northeast 123 142 3,600 -180 Level Jacksonville Center
09:23PM 28.9183 -81.1397 58° Northeast 125 144 3,300 -300 Descending Jacksonville Center
09:24PM 28.9411 -81.1083 50° Northeast 124 143 3,000 -360 Descending Jacksonville Center
09:25PM 28.9656 -81.0747 50° Northeast 120 138 2,600 -360 Descending Jacksonville Center
09:26PM 28.9881 -81.0458 48° Northeast 123 142 2,300 -300 Descending Jacksonville Center
09:27PM 29.0022 -81.0100 66° East 127 146 2,000 -300 Descending Jacksonville Center
09:28PM 29.0119 -80.9669 76° East 128 147 1,700 -420 Descending Jacksonville Center
09:29PM 29.0197 -80.9311 76° East 106 122 1,200 -540 Descending Jacksonville Center
09:30PM 29.0406 -80.9214 22° Northeast 68 78 600 -600 Descending Jacksonville Center
09:32PM 29.0557 -80.9489 312° West  Level Estimated
09:39PM 29.0557 -80.9489 56° Northeast  Level Estimated
09:40PM 29.0557 -80.9489 56° Northeast  Level Estimated
09:41PM 29.0557 -80.9489 56° Northeast  Level Estimated